createdAt,value
2019-02-12T00:00:43.369Z,81.39
2019-02-12T00:03:11.929Z,81.23
2019-02-12T00:05:40.564Z,81.03
2019-02-12T00:08:08.986Z,80.80
2019-02-12T00:10:37.650Z,80.66
2019-02-12T00:13:06.208Z,80.44
2019-02-12T00:15:34.753Z,80.21
2019-02-12T00:18:03.180Z,79.88
2019-02-12T00:20:31.751Z,79.87
2019-02-12T00:23:00.312Z,79.82
2019-02-12T00:25:28.860Z,79.83
2019-02-12T00:27:57.340Z,79.94
2019-02-12T00:30:25.835Z,80.08
2019-02-12T00:32:54.258Z,80.35
2019-02-12T00:35:22.900Z,80.83
2019-02-12T00:37:51.445Z,81.10
2019-02-12T00:40:20.015Z,81.96
2019-02-12T00:42:48.437Z,82.35
2019-02-12T00:45:16.989Z,83.05
2019-02-12T00:47:45.430Z,83.59
2019-02-12T00:50:14.060Z,84.06
2019-02-12T00:52:42.647Z,84.33
2019-02-12T00:55:11.141Z,84.83
2019-02-12T00:57:39.649Z,85.20
2019-02-12T01:00:11.572Z,85.31
2019-02-12T01:02:40.070Z,85.56
2019-02-12T01:05:08.641Z,85.81
2019-02-12T01:07:37.125Z,86.10
2019-02-12T01:10:08.870Z,86.16
2019-02-12T01:12:37.526Z,86.32
2019-02-12T01:15:11.953Z,86.58
2019-02-12T01:17:40.454Z,86.87
2019-02-12T01:20:11.132Z,86.80
2019-02-12T01:22:39.789Z,86.87
2019-02-12T01:25:08.762Z,86.82
2019-02-12T01:27:37.262Z,87.13
2019-02-12T01:30:11.855Z,87.24
2019-02-12T01:32:40.433Z,87.42
2019-02-12T01:35:23.001Z,87.40
2019-02-12T01:37:51.578Z,87.40
2019-02-12T01:40:20.116Z,87.42
2019-02-12T01:42:48.488Z,87.50
2019-02-12T01:45:16.973Z,87.33
2019-02-12T01:47:45.462Z,87.26
2019-02-12T01:50:13.871Z,87.29
2019-02-12T01:52:42.287Z,87.18
2019-02-12T01:55:10.702Z,86.60
2019-02-12T01:57:39.259Z,86.12
2019-02-12T02:00:10.525Z,86.51
2019-02-12T02:02:38.947Z,84.93
2019-02-12T02:05:09.269Z,83.52
2019-02-12T02:07:37.670Z,83.55
2019-02-12T02:10:09.358Z,81.98
2019-02-12T02:12:37.838Z,81.77
2019-02-12T02:15:08.785Z,81.73
2019-02-12T02:17:37.270Z,81.38
2019-02-12T02:20:08.771Z,80.69
2019-02-12T02:22:37.165Z,80.67
2019-02-12T02:25:08.230Z,80.69
2019-02-12T02:27:36.632Z,79.36
2019-02-12T02:30:07.389Z,78.24
2019-02-12T02:32:35.861Z,78.26
2019-02-12T02:35:05.313Z,78.58
2019-02-12T02:37:33.783Z,77.25
2019-02-12T02:40:02.208Z,78.51
2019-02-12T02:42:30.662Z,78.70
2019-02-12T02:44:59.068Z,77.71
2019-02-12T02:47:27.529Z,77.59
2019-02-12T02:49:55.921Z,77.43
2019-02-12T02:52:24.397Z,76.93
2019-02-12T02:54:53.007Z,77.02
2019-02-12T02:57:21.437Z,75.98
2019-02-12T02:59:49.838Z,77.42
2019-02-12T03:02:18.332Z,77.25
2019-02-12T03:04:46.811Z,77.12
2019-02-12T03:07:15.304Z,76.98
2019-02-12T03:09:43.709Z,77.18
2019-02-12T03:12:12.248Z,76.47
2019-02-12T03:14:40.741Z,77.95
2019-02-12T03:17:09.228Z,76.85
2019-02-12T03:19:37.692Z,76.47
2019-02-12T03:22:06.233Z,76.10
2019-02-12T03:24:34.777Z,76.38
2019-02-12T03:27:03.237Z,75.23
2019-02-12T03:29:31.701Z,76.50
2019-02-12T03:32:00.175Z,76.23
2019-02-12T03:34:28.707Z,76.57
2019-02-12T03:36:57.256Z,76.25
2019-02-12T03:39:25.695Z,76.64
2019-02-12T03:41:54.246Z,76.83
2019-02-12T03:44:22.707Z,77.38
2019-02-12T03:46:51.100Z,75.70
2019-02-12T03:49:19.579Z,76.98
2019-02-12T03:51:48.061Z,76.42
2019-02-12T03:54:16.544Z,76.78
2019-02-12T03:56:44.956Z,75.55
2019-02-12T03:59:13.369Z,75.54
2019-02-12T04:01:41.857Z,75.17
2019-02-12T04:04:10.237Z,75.93
2019-02-12T04:06:38.710Z,75.88
2019-02-12T04:09:07.176Z,75.19
2019-02-12T04:11:35.722Z,75.60
2019-02-12T04:14:04.248Z,74.98
2019-02-12T04:16:32.740Z,76.71
2019-02-12T04:19:01.287Z,77.45
2019-02-12T04:21:29.692Z,77.13
2019-02-12T04:23:58.167Z,76.22
2019-02-12T04:26:26.725Z,75.01
2019-02-12T04:28:55.265Z,75.13
2019-02-12T04:31:23.682Z,75.81
2019-02-12T04:33:52.083Z,75.65
2019-02-12T04:36:20.495Z,74.66
2019-02-12T04:38:49.065Z,74.20
2019-02-12T04:41:17.479Z,74.94
2019-02-12T04:43:45.952Z,73.66
2019-02-12T04:46:14.436Z,72.38
2019-02-12T04:48:42.845Z,72.44
2019-02-12T04:51:11.270Z,72.26
2019-02-12T04:53:39.799Z,72.24
2019-02-12T04:56:08.210Z,73.00
2019-02-12T04:58:36.773Z,72.76
2019-02-12T05:01:05.244Z,72.99
2019-02-12T05:03:33.721Z,71.28
2019-02-12T05:06:02.115Z,69.73
2019-02-12T05:08:33.847Z,70.36
2019-02-12T05:11:05.067Z,71.08
2019-02-12T05:13:33.524Z,70.39
2019-02-12T05:16:02.071Z,71.14
2019-02-12T05:18:30.697Z,70.93
2019-02-12T05:20:59.263Z,71.63
2019-02-12T05:23:27.820Z,71.55
2019-02-12T05:25:56.284Z,71.93
2019-02-12T05:28:24.847Z,71.47
2019-02-12T05:30:53.370Z,71.74
2019-02-12T05:33:21.922Z,72.30
2019-02-12T05:35:50.478Z,72.97
2019-02-12T05:38:19.011Z,73.05
2019-02-12T05:40:47.566Z,73.69
2019-02-12T05:43:16.049Z,74.28
2019-02-12T05:45:44.519Z,74.13
2019-02-12T05:48:12.934Z,73.76
2019-02-12T05:50:41.472Z,73.47
2019-02-12T05:53:10.092Z,72.94
2019-02-12T05:55:38.641Z,73.05
2019-02-12T05:58:07.149Z,72.59
2019-02-12T06:00:35.688Z,73.24
2019-02-12T06:03:04.099Z,72.30
2019-02-12T06:05:32.646Z,72.50
2019-02-12T06:08:01.211Z,73.04
2019-02-12T06:10:29.703Z,72.44
2019-02-12T06:13:00.041Z,72.19
2019-02-12T06:15:28.627Z,72.31
2019-02-12T06:17:57.091Z,71.91
2019-02-12T06:20:25.504Z,71.54
2019-02-12T06:23:03.044Z,72.03
2019-02-12T06:25:24.352Z,72.12
2019-02-12T06:27:52.828Z,71.93
2019-02-12T06:30:21.337Z,71.57
2019-02-12T06:32:49.819Z,71.75
2019-02-12T06:35:18.234Z,71.76
2019-02-12T06:37:46.713Z,71.81
2019-02-12T06:40:15.125Z,71.40
2019-02-12T06:42:43.699Z,71.49
2019-02-12T06:45:13.528Z,71.42
2019-02-12T06:47:42.004Z,71.83
2019-02-12T06:50:13.865Z,70.70
2019-02-12T06:52:42.346Z,70.83
2019-02-12T06:55:11.287Z,70.12
2019-02-12T06:57:39.883Z,70.81
2019-02-12T07:00:10.910Z,70.97
2019-02-12T07:03:09.916Z,70.87
2019-02-12T07:05:40.765Z,70.14
2019-02-12T07:08:31.936Z,70.83
2019-02-12T07:11:18.400Z,70.87
2019-02-12T07:14:10.772Z,70.30
2019-02-12T07:16:42.529Z,70.27
2019-02-12T07:19:43.956Z,69.72
2019-02-12T07:22:49.892Z,69.29
2019-02-12T07:25:24.025Z,69.74
2019-02-12T07:28:11.962Z,68.39
2019-02-12T07:30:52.470Z,68.85
2019-02-12T07:33:43.417Z,68.10
2019-02-12T07:36:20.667Z,67.90
2019-02-12T07:39:10.006Z,66.73
2019-02-12T07:41:44.260Z,67.57
2019-02-12T07:44:30.992Z,67.83
2019-02-12T07:47:20.507Z,67.33
2019-02-12T07:50:00.791Z,67.13
2019-02-12T07:52:32.516Z,66.79
2019-02-12T07:55:23.567Z,66.57
2019-02-12T07:58:26.309Z,66.01
2019-02-12T08:01:00.765Z,66.67
2019-02-12T08:04:01.089Z,67.15
2019-02-12T08:06:48.325Z,66.18
2019-02-12T08:09:40.851Z,65.36
2019-02-12T08:12:29.143Z,63.67
2019-02-12T08:15:07.330Z,61.79
2019-02-12T08:17:42.173Z,62.00
2019-02-12T08:20:31.596Z,60.83
2019-02-12T08:23:15.605Z,61.68
2019-02-12T08:25:53.769Z,59.16
2019-02-12T08:28:43.950Z,55.64
2019-02-12T08:31:16.302Z,56.16
2019-02-12T08:34:06.676Z,54.88
2019-02-12T08:36:41.533Z,54.98
2019-02-12T08:39:19.344Z,54.03
2019-02-12T08:42:06.247Z,51.92
2019-02-12T08:44:44.619Z,53.75
2019-02-12T08:47:22.441Z,53.33
2019-02-12T08:50:13.866Z,52.30
2019-02-12T08:52:51.740Z,52.84
2019-02-12T08:55:36.859Z,52.27
2019-02-12T08:58:18.301Z,52.77
2019-02-12T09:01:11.637Z,52.69
2019-02-12T09:03:46.851Z,52.64
2019-02-12T09:06:37.199Z,53.26
2019-02-12T09:09:18.112Z,54.14
2019-02-12T09:11:55.877Z,54.72
2019-02-12T09:14:42.688Z,52.72
2019-02-12T09:17:32.938Z,52.58
2019-02-12T09:20:05.250Z,52.51
2019-02-12T09:22:55.255Z,51.01
2019-02-12T09:25:39.247Z,50.91
2019-02-12T09:28:14.056Z,51.42
2019-02-12T09:31:10.029Z,50.52
2019-02-12T09:33:45.074Z,50.04
2019-02-12T09:36:42.538Z,49.90
2019-02-12T09:39:20.561Z,49.33
2019-02-12T09:41:55.444Z,50.43
2019-02-12T09:44:48.526Z,50.88
2019-02-12T09:47:48.006Z,49.96
2019-02-12T09:50:28.835Z,49.36
2019-02-12T09:53:17.081Z,47.85
2019-02-12T09:56:11.511Z,47.28
2019-02-12T09:59:16.894Z,48.90
2019-02-12T10:01:51.608Z,48.07
2019-02-12T10:04:40.404Z,46.79
2019-02-12T10:07:15.599Z,46.54
2019-02-12T10:09:56.683Z,46.43
2019-02-12T10:12:34.731Z,47.51
2019-02-12T10:15:18.623Z,46.99
2019-02-12T10:18:11.755Z,47.30
2019-02-12T10:20:52.599Z,46.17
2019-02-12T10:23:39.057Z,46.97
2019-02-12T10:26:17.256Z,46.00
2019-02-12T10:28:49.600Z,47.14
2019-02-12T10:31:19.127Z,45.27
2019-02-12T10:33:48.130Z,44.59
2019-02-12T10:36:17.199Z,43.92
2019-02-12T10:38:46.267Z,44.57
2019-02-12T10:41:15.419Z,45.58
2019-02-12T10:43:44.480Z,43.43
2019-02-12T10:46:13.685Z,43.26
2019-02-12T10:48:42.829Z,44.47
2019-02-12T10:51:11.912Z,43.92
2019-02-12T10:53:41.060Z,44.95
2019-02-12T10:56:10.199Z,46.16
2019-02-12T10:58:39.409Z,45.41
2019-02-12T11:01:08.551Z,46.90
2019-02-12T11:03:37.543Z,46.43
2019-02-12T11:06:06.605Z,45.76
2019-02-12T11:08:35.735Z,45.59
2019-02-12T11:11:04.840Z,46.41
2019-02-12T11:13:33.842Z,46.24
2019-02-12T11:16:02.978Z,46.13
2019-02-12T11:18:32.062Z,45.08
2019-02-12T11:21:01.200Z,45.95
2019-02-12T11:23:30.194Z,45.99
2019-02-12T11:25:59.282Z,45.36
2019-02-12T11:28:28.351Z,46.54
2019-02-12T11:30:57.431Z,46.10
2019-02-12T11:33:26.560Z,46.99
2019-02-12T11:35:55.646Z,46.12
2019-02-12T11:38:24.785Z,45.90
2019-02-12T11:40:53.851Z,45.60
2019-02-12T11:43:22.983Z,46.79
2019-02-12T11:45:52.117Z,46.15
2019-02-12T11:48:21.183Z,46.37
2019-02-12T11:50:50.405Z,46.42
2019-02-12T11:53:19.470Z,46.46
2019-02-12T11:55:48.465Z,46.95
2019-02-12T11:58:17.617Z,46.78
2019-02-12T12:00:48.247Z,45.94
2019-02-12T12:03:17.401Z,46.14
2019-02-12T12:05:46.457Z,46.79
2019-02-12T12:08:15.539Z,47.23
2019-02-12T12:10:44.691Z,47.17
2019-02-12T12:13:13.889Z,46.38
2019-02-12T12:15:42.869Z,46.51
2019-02-12T12:18:12.032Z,45.73
2019-02-12T12:20:41.159Z,45.69
2019-02-12T12:23:10.293Z,45.72
2019-02-12T12:25:39.456Z,45.82
2019-02-12T12:28:08.601Z,47.09
2019-02-12T12:30:39.335Z,46.16
2019-02-12T12:33:08.683Z,46.38
2019-02-12T12:35:37.733Z,45.91
2019-02-12T12:38:06.772Z,45.98
2019-02-12T12:40:35.900Z,45.89
2019-02-12T12:43:04.987Z,46.50
2019-02-12T12:45:34.165Z,46.12
2019-02-12T12:48:03.362Z,46.82
2019-02-12T12:50:32.595Z,47.58
2019-02-12T12:53:01.759Z,46.28
2019-02-12T12:55:31.001Z,45.91
2019-02-12T12:58:00.246Z,46.99
2019-02-12T13:00:29.400Z,47.74
2019-02-12T13:02:58.618Z,46.79
2019-02-12T13:05:27.775Z,46.54
2019-02-12T13:07:56.924Z,45.48
2019-02-12T13:10:26.079Z,45.16
2019-02-12T13:12:55.304Z,46.55
2019-02-12T13:15:24.524Z,46.63
2019-02-12T13:17:53.668Z,46.62
2019-02-12T13:20:22.840Z,47.31
2019-02-12T13:22:51.980Z,47.41
2019-02-12T13:25:21.234Z,47.17
2019-02-12T13:27:50.459Z,47.61
2019-02-12T13:30:19.922Z,48.64
2019-02-12T13:32:49.065Z,48.51
2019-02-12T13:35:18.217Z,47.29
2019-02-12T13:37:47.423Z,46.64
2019-02-12T13:40:16.757Z,46.78
2019-02-12T13:42:47.210Z,46.74
2019-02-12T13:45:16.984Z,46.64
2019-02-12T13:47:46.207Z,47.66
2019-02-12T13:50:15.380Z,48.02
2019-02-12T13:52:44.534Z,47.38
2019-02-12T13:55:17.339Z,47.47
2019-02-12T13:57:44.553Z,47.64
2019-02-12T14:00:19.679Z,48.21
2019-02-12T14:02:48.855Z,49.26
2019-02-12T14:05:22.798Z,49.17
2019-02-12T14:07:51.968Z,49.30
2019-02-12T14:10:21.115Z,49.54
2019-02-12T14:12:50.265Z,49.52
2019-02-12T14:15:19.412Z,48.87
2019-02-12T14:17:48.558Z,49.39
2019-02-12T14:20:18.144Z,47.96
2019-02-12T14:22:47.362Z,48.19
2019-02-12T14:25:25.002Z,49.34
2019-02-12T14:27:47.585Z,48.69
2019-02-12T14:30:22.141Z,49.52
2019-02-12T14:32:51.352Z,48.98
2019-02-12T14:35:20.501Z,49.24
2019-02-12T14:37:49.658Z,49.30
2019-02-12T14:40:18.811Z,49.17
2019-02-12T14:42:47.973Z,50.74
2019-02-12T14:45:20.310Z,50.18
2019-02-12T14:47:49.463Z,50.59
2019-02-12T14:50:22.015Z,51.52
2019-02-12T14:52:50.594Z,51.03
2019-02-12T14:55:19.169Z,50.50
2019-02-12T14:57:48.346Z,51.35
2019-02-12T15:00:18.925Z,51.16
2019-02-12T15:02:47.502Z,50.68
2019-02-12T15:05:16.053Z,51.26
2019-02-12T15:07:44.688Z,50.68
2019-02-12T15:10:14.440Z,51.42
2019-02-12T15:12:43.016Z,52.46
2019-02-12T15:15:11.798Z,52.87
2019-02-12T15:17:40.381Z,52.41
2019-02-12T15:20:10.910Z,52.87
2019-02-12T15:22:39.475Z,52.87
2019-02-12T15:25:10.226Z,53.25
2019-02-12T15:27:38.797Z,52.53
2019-02-12T15:30:13.142Z,53.09
2019-02-12T15:32:41.786Z,53.40
2019-02-12T15:35:11.139Z,52.87
2019-02-12T15:37:39.793Z,53.09
2019-02-12T15:40:11.550Z,52.85
2019-02-12T15:42:40.193Z,53.03
2019-02-12T15:45:13.954Z,53.04
2019-02-12T15:47:42.521Z,53.87
2019-02-12T15:50:11.766Z,54.44
2019-02-12T15:52:40.385Z,54.60
2019-02-12T15:55:11.126Z,54.29
2019-02-12T15:57:40.422Z,54.61
2019-02-12T16:00:16.118Z,54.11
2019-02-12T16:02:45.682Z,54.58
2019-02-12T16:05:14.347Z,55.51
2019-02-12T16:07:44.664Z,55.12
2019-02-12T16:10:19.615Z,55.62
2019-02-12T16:12:50.698Z,54.92
2019-02-12T16:15:21.802Z,55.53
2019-02-12T16:17:49.837Z,55.51
2019-02-12T16:20:18.819Z,56.06
2019-02-12T16:22:47.483Z,56.24
2019-02-12T16:25:16.224Z,56.50
2019-02-12T16:27:44.846Z,56.91
2019-02-12T16:30:20.724Z,56.93
2019-02-12T16:32:49.303Z,56.96
2019-02-12T16:35:18.292Z,57.27
2019-02-12T16:37:49.614Z,57.48
2019-02-12T16:40:18.404Z,56.95
2019-02-12T16:42:46.980Z,56.90
2019-02-12T16:45:24.364Z,56.93
2019-02-12T16:47:52.983Z,57.43
2019-02-12T16:50:21.611Z,57.97
2019-02-12T16:52:51.776Z,57.80
2019-02-12T16:55:20.460Z,57.79
2019-02-12T16:57:49.135Z,57.79
2019-02-12T17:00:20.432Z,58.43
2019-02-12T17:02:49.118Z,57.99
2019-02-12T17:05:17.788Z,58.51
2019-02-12T17:07:46.368Z,58.25
2019-02-12T17:10:15.440Z,58.82
2019-02-12T17:12:44.118Z,58.37
2019-02-12T17:15:13.680Z,58.75
2019-02-12T17:17:42.371Z,58.34
2019-02-12T17:20:16.876Z,57.99
2019-02-12T17:22:47.326Z,58.08
2019-02-12T17:25:15.974Z,58.74
2019-02-12T17:27:44.556Z,58.42
2019-02-12T17:30:17.302Z,58.04
2019-02-12T17:32:45.889Z,58.28
2019-02-12T17:35:14.492Z,58.65
2019-02-12T17:37:43.086Z,58.91
2019-02-12T17:40:20.847Z,59.28
2019-02-12T17:42:49.406Z,59.27
2019-02-12T17:45:20.653Z,59.62
2019-02-12T17:47:49.285Z,59.44
2019-02-12T17:50:17.920Z,59.22
2019-02-12T17:52:46.570Z,59.74
2019-02-12T17:55:15.310Z,59.52
2019-02-12T17:57:43.935Z,59.89
2019-02-12T18:00:17.281Z,59.89
2019-02-12T18:02:46.269Z,60.04
2019-02-12T18:05:16.567Z,60.75
2019-02-12T18:07:45.344Z,60.63
2019-02-12T18:10:14.137Z,60.90
2019-02-12T18:12:49.154Z,61.22
2019-02-12T18:15:18.009Z,61.35
2019-02-12T18:17:52.906Z,61.58
2019-02-12T18:20:26.786Z,61.30
2019-02-12T18:22:55.426Z,61.67
2019-02-12T18:25:24.049Z,61.83
2019-02-12T18:27:53.744Z,61.85
2019-02-12T18:30:22.419Z,61.22
2019-02-12T18:32:51.027Z,61.39
2019-02-12T18:35:19.611Z,61.33
2019-02-12T18:37:48.177Z,61.54
2019-02-12T18:40:18.035Z,61.86
2019-02-12T18:42:46.699Z,62.02
2019-02-12T18:45:17.552Z,61.87
2019-02-12T18:47:46.216Z,62.02
2019-02-12T18:50:14.669Z,62.24
2019-02-12T18:52:43.322Z,62.18
2019-02-12T18:55:13.765Z,62.30
2019-02-12T18:57:42.432Z,62.62
2019-02-12T19:00:19.612Z,62.71
2019-02-12T19:02:48.307Z,62.49
2019-02-12T19:05:16.974Z,62.88
2019-02-12T19:07:45.604Z,62.87
2019-02-12T19:10:17.935Z,62.96
2019-02-12T19:12:46.515Z,63.13
2019-02-12T19:15:22.226Z,63.20
2019-02-12T19:17:56.657Z,63.10
2019-02-12T19:20:25.317Z,63.04
2019-02-12T19:22:53.962Z,63.40
2019-02-12T19:25:22.618Z,63.29
2019-02-12T19:27:51.295Z,62.96
2019-02-12T19:30:19.931Z,63.53
2019-02-12T19:32:48.571Z,63.15
2019-02-12T19:35:18.191Z,63.23
2019-02-12T19:37:46.848Z,63.23
2019-02-12T19:40:15.434Z,63.19
2019-02-12T19:42:44.083Z,62.91
2019-02-12T19:45:19.137Z,62.93
2019-02-12T19:47:47.800Z,62.97
2019-02-12T19:50:16.458Z,62.41
2019-02-12T19:52:45.061Z,62.04
2019-02-12T19:55:13.698Z,62.33
2019-02-12T19:57:42.295Z,62.27
2019-02-12T20:00:16.837Z,62.19
2019-02-12T20:02:45.429Z,62.07
2019-02-12T20:05:14.031Z,62.17
2019-02-12T20:07:44.242Z,62.13
2019-02-12T20:10:14.122Z,62.34
2019-02-12T20:12:42.715Z,62.51
2019-02-12T20:15:13.380Z,62.68
2019-02-12T20:17:42.071Z,62.56
2019-02-12T20:20:12.173Z,62.90
2019-02-12T20:22:40.838Z,63.01
2019-02-12T20:25:10.474Z,63.37
2019-02-12T20:27:39.115Z,63.51
2019-02-12T20:30:17.472Z,63.36
2019-02-12T20:32:46.127Z,63.26
2019-02-12T20:35:19.726Z,63.05
2019-02-12T20:37:48.428Z,62.89
2019-02-12T20:40:17.086Z,62.74
2019-02-12T20:42:45.655Z,63.00
2019-02-12T20:45:17.358Z,62.99
2019-02-12T20:47:45.999Z,63.15
2019-02-12T20:50:22.128Z,63.58
2019-02-12T20:52:50.726Z,63.24
2019-02-12T20:55:19.355Z,62.78
2019-02-12T20:57:47.938Z,62.86
2019-02-12T21:00:20.882Z,62.86
2019-02-12T21:02:49.468Z,62.79
2019-02-12T21:05:18.033Z,62.97
2019-02-12T21:07:46.672Z,62.96
2019-02-12T21:10:17.780Z,62.82
2019-02-12T21:12:46.361Z,62.90
2019-02-12T21:15:22.902Z,63.06
2019-02-12T21:17:51.486Z,62.88
2019-02-12T21:20:20.083Z,63.12
2019-02-12T21:22:48.724Z,63.18
2019-02-12T21:25:17.375Z,63.68
2019-02-12T21:27:46.006Z,63.30
2019-02-12T21:30:22.398Z,63.49
2019-02-12T21:32:51.040Z,63.76
2019-02-12T21:35:19.667Z,63.72
2019-02-12T21:37:48.220Z,64.43
2019-02-12T21:40:19.167Z,64.44
2019-02-12T21:42:48.100Z,64.97
2019-02-12T21:45:16.656Z,64.94
2019-02-12T21:47:45.220Z,65.04
2019-02-12T21:50:13.853Z,64.99
2019-02-12T21:52:42.460Z,64.88
2019-02-12T21:55:13.309Z,64.64
2019-02-12T21:57:41.862Z,65.03
2019-02-12T22:00:13.021Z,65.26
2019-02-12T22:02:41.507Z,65.05
2019-02-12T22:05:12.238Z,65.16
2019-02-12T22:07:40.656Z,65.13
2019-02-12T22:10:23.148Z,65.14
2019-02-12T22:12:51.572Z,65.49
2019-02-12T22:15:20.122Z,65.61
2019-02-12T22:17:48.628Z,65.91
2019-02-12T22:20:20.790Z,66.44
2019-02-12T22:22:49.285Z,66.36
2019-02-12T22:25:17.781Z,65.82
2019-02-12T22:27:46.263Z,65.61
2019-02-12T22:30:23.056Z,65.50
2019-02-12T22:32:51.464Z,65.20
2019-02-12T22:35:20.017Z,64.71
2019-02-12T22:37:48.429Z,64.31
2019-02-12T22:40:17.555Z,63.86
2019-02-12T22:42:46.053Z,63.54
2019-02-12T22:45:24.707Z,63.81
2019-02-12T22:47:53.151Z,64.00
2019-02-12T22:50:21.620Z,64.62
2019-02-12T22:52:50.060Z,64.82
2019-02-12T22:55:18.699Z,64.86
2019-02-12T22:57:49.565Z,65.06
2019-02-12T23:00:27.906Z,65.36
2019-02-12T23:02:56.687Z,65.32
2019-02-12T23:05:25.622Z,65.55
2019-02-12T23:07:54.204Z,65.55
2019-02-12T23:10:22.871Z,65.36
2019-02-12T23:12:51.500Z,65.66
2019-02-12T23:15:20.123Z,65.81
2019-02-12T23:17:48.788Z,66.10
2019-02-12T23:20:17.345Z,65.89
2019-02-12T23:22:45.998Z,66.33
2019-02-12T23:25:14.637Z,65.97
2019-02-12T23:27:43.222Z,65.88
2019-02-12T23:30:11.786Z,65.08
2019-02-12T23:32:40.450Z,64.85
2019-02-12T23:35:09.092Z,64.58
2019-02-12T23:37:37.751Z,64.18
2019-02-12T23:40:07.614Z,64.30
2019-02-12T23:42:36.202Z,63.96
2019-02-12T23:45:06.466Z,63.96
2019-02-12T23:47:35.121Z,64.07
2019-02-12T23:50:04.760Z,64.22
2019-02-12T23:52:33.420Z,63.59
2019-02-12T23:55:01.999Z,63.31
2019-02-12T23:57:30.639Z,63.26
2019-02-12T23:59:59.219Z,63.22
